createdAt,value
2022-08-19T00:00:15.838Z,100.00
2022-08-19T00:02:50.087Z,100.00
2022-08-19T00:05:20.885Z,100.00
2022-08-19T00:07:50.715Z,100.00
2022-08-19T00:10:21.867Z,100.00
2022-08-19T00:12:50.595Z,100.00
2022-08-19T00:15:22.456Z,100.00
2022-08-19T00:17:51.347Z,100.00
2022-08-19T00:20:23.062Z,100.00
2022-08-19T00:22:53.122Z,100.00
2022-08-19T00:25:29.856Z,100.00
2022-08-19T00:28:00.632Z,100.00
2022-08-19T00:30:30.977Z,100.00
2022-08-19T00:33:00.456Z,100.00
2022-08-19T00:35:30.874Z,100.00
2022-08-19T00:37:59.713Z,100.00
2022-08-19T00:40:27.669Z,100.00
2022-08-19T00:42:56.788Z,100.00
2022-08-19T00:45:31.831Z,100.00
2022-08-19T00:48:05.302Z,100.00
2022-08-19T00:50:51.961Z,100.00
2022-08-19T00:53:24.041Z,100.00
2022-08-19T00:55:56.154Z,100.00
2022-08-19T00:58:30.187Z,100.00
2022-08-19T01:00:59.722Z,100.00
2022-08-19T01:03:28.578Z,100.00
2022-08-19T01:05:58.861Z,100.00
2022-08-19T01:08:30.062Z,100.00
2022-08-19T01:11:02.231Z,100.00
2022-08-19T01:13:48.952Z,100.00
2022-08-19T01:16:25.409Z,100.00
2022-08-19T01:18:57.088Z,100.00
2022-08-19T01:21:49.629Z,100.00
2022-08-19T01:24:18.282Z,100.00
2022-08-19T01:26:49.074Z,100.00
2022-08-19T01:29:17.207Z,100.00
2022-08-19T01:31:45.833Z,100.00
2022-08-19T01:34:14.165Z,100.00
2022-08-19T01:36:48.773Z,100.00
2022-08-19T01:39:21.138Z,100.00
2022-08-19T01:41:50.252Z,100.00
2022-08-19T01:44:24.666Z,100.00
2022-08-19T01:46:54.821Z,100.00
2022-08-19T01:49:26.361Z,100.00
2022-08-19T01:51:55.258Z,100.00
2022-08-19T01:54:27.422Z,100.00
2022-08-19T01:57:07.903Z,100.00
2022-08-19T01:59:38.452Z,100.00
2022-08-19T02:02:11.695Z,100.00
2022-08-19T02:04:40.996Z,100.00
2022-08-19T02:07:09.458Z,100.00
2022-08-19T02:09:38.643Z,100.00
2022-08-19T02:12:09.202Z,100.00
2022-08-19T02:14:37.980Z,100.00
2022-08-19T02:17:07.368Z,100.00
2022-08-19T02:19:39.495Z,100.00
2022-08-19T02:22:08.665Z,100.00
2022-08-19T02:24:37.183Z,100.00
2022-08-19T02:27:06.972Z,100.00
2022-08-19T02:29:36.961Z,100.00
2022-08-19T02:32:05.582Z,100.00
2022-08-19T02:34:34.986Z,100.00
2022-08-19T02:37:04.003Z,100.00
2022-08-19T02:39:32.869Z,100.00
2022-08-19T02:42:01.291Z,100.00
2022-08-19T02:44:32.011Z,100.00
2022-08-19T02:47:00.497Z,100.00
2022-08-19T02:49:30.190Z,100.00
2022-08-19T02:52:04.445Z,100.00
2022-08-19T02:54:34.508Z,100.00
2022-08-19T02:57:06.923Z,100.00
2022-08-19T02:59:35.674Z,100.00
2022-08-19T03:02:04.833Z,100.00
2022-08-19T03:04:34.735Z,100.00
2022-08-19T03:07:10.903Z,100.00
2022-08-19T03:09:39.416Z,100.00
2022-08-19T03:12:08.542Z,100.00
2022-08-19T03:14:37.800Z,100.00
2022-08-19T03:17:07.986Z,100.00
2022-08-19T03:19:36.778Z,100.00
2022-08-19T03:22:08.136Z,100.00
2022-08-19T03:24:36.978Z,100.00
2022-08-19T03:27:06.163Z,100.00
2022-08-19T03:29:43.889Z,100.00
2022-08-19T03:32:31.669Z,100.00
2022-08-19T03:35:01.528Z,100.00
2022-08-19T03:37:33.394Z,100.00
2022-08-19T03:40:01.332Z,100.00
2022-08-19T03:42:38.634Z,100.00
2022-08-19T03:45:20.720Z,100.00
2022-08-19T03:47:49.243Z,100.00
2022-08-19T03:50:20.813Z,100.00
2022-08-19T03:52:53.020Z,100.00
2022-08-19T03:55:21.825Z,100.00
2022-08-19T03:57:50.216Z,100.00
2022-08-19T04:00:19.111Z,100.00
2022-08-19T04:02:58.384Z,100.00
2022-08-19T04:05:30.347Z,100.00
2022-08-19T04:08:01.665Z,100.00
2022-08-19T04:10:30.536Z,100.00
2022-08-19T04:13:02.173Z,100.00
2022-08-19T04:15:34.565Z,100.00
2022-08-19T04:18:08.839Z,100.00
2022-08-19T04:20:46.727Z,100.00
2022-08-19T04:23:16.733Z,100.00
2022-08-19T04:25:45.873Z,100.00
2022-08-19T04:28:14.414Z,100.00
2022-08-19T04:30:48.365Z,100.00
2022-08-19T04:33:19.843Z,100.00
2022-08-19T04:35:59.449Z,100.00
2022-08-19T04:38:28.543Z,100.00
2022-08-19T04:41:15.760Z,100.00
2022-08-19T04:43:50.541Z,100.00
2022-08-19T04:46:39.268Z,100.00
2022-08-19T04:49:10.510Z,100.00
2022-08-19T04:51:44.521Z,100.00
2022-08-19T04:54:15.169Z,100.00
2022-08-19T04:57:07.385Z,100.00
2022-08-19T04:59:37.667Z,100.00
2022-08-19T05:02:06.741Z,100.00
2022-08-19T05:04:37.879Z,100.00
2022-08-19T05:07:11.117Z,100.00
2022-08-19T05:09:57.947Z,100.00
2022-08-19T05:12:29.554Z,100.00
2022-08-19T05:14:59.616Z,100.00
2022-08-19T05:17:32.390Z,100.00
2022-08-19T05:20:41.021Z,100.00
2022-08-19T05:23:20.455Z,100.00
2022-08-19T05:25:51.555Z,100.00
2022-08-19T05:28:21.694Z,100.00
2022-08-19T05:30:52.601Z,100.00
2022-08-19T05:33:21.470Z,100.00
2022-08-19T05:35:50.563Z,100.00
2022-08-19T05:38:21.037Z,100.00
2022-08-19T05:40:50.514Z,100.00
2022-08-19T05:43:19.427Z,100.00
2022-08-19T05:45:47.332Z,100.00
2022-08-19T05:48:18.574Z,100.00
2022-08-19T05:50:47.955Z,100.00
2022-08-19T05:53:17.498Z,100.00
2022-08-19T05:55:46.435Z,100.00
2022-08-19T05:58:14.417Z,100.00
2022-08-19T06:00:46.194Z,100.00
2022-08-19T06:03:15.175Z,100.00
2022-08-19T06:05:49.651Z,100.00
2022-08-19T06:08:35.041Z,100.00
2022-08-19T06:11:39.617Z,100.00
2022-08-19T06:14:16.594Z,100.00
2022-08-19T06:16:46.428Z,100.00
2022-08-19T06:19:18.486Z,100.00
2022-08-19T06:21:49.050Z,100.00
2022-08-19T06:24:25.149Z,100.00
2022-08-19T06:26:59.242Z,100.00
2022-08-19T06:29:31.300Z,100.00
2022-08-19T06:32:01.396Z,100.00
2022-08-19T06:34:31.852Z,100.00
2022-08-19T06:37:03.047Z,99.15
2022-08-19T06:39:35.201Z,96.56
2022-08-19T06:42:10.295Z,96.58
2022-08-19T06:44:42.571Z,93.64
2022-08-19T06:47:23.732Z,93.46
2022-08-19T06:50:01.267Z,94.50
2022-08-19T06:52:36.587Z,94.23
2022-08-19T06:55:07.722Z,92.14
2022-08-19T06:57:36.821Z,90.54
2022-08-19T07:00:13.068Z,87.58
2022-08-19T07:02:49.804Z,86.85
2022-08-19T07:05:24.422Z,84.21
2022-08-19T07:07:58.230Z,84.86
2022-08-19T07:10:32.813Z,84.81
2022-08-19T07:13:01.655Z,82.92
2022-08-19T07:15:32.119Z,81.04
2022-08-19T07:18:01.163Z,80.10
2022-08-19T07:20:30.648Z,78.72
2022-08-19T07:22:59.900Z,80.74
2022-08-19T07:25:33.353Z,81.49
2022-08-19T07:28:01.658Z,80.15
2022-08-19T07:30:33.980Z,80.92
2022-08-19T07:33:03.533Z,78.66
2022-08-19T07:35:40.674Z,79.27
2022-08-19T07:38:08.578Z,79.63
2022-08-19T07:40:37.631Z,82.46
2022-08-19T07:43:06.233Z,80.82
2022-08-19T07:45:35.107Z,77.97
2022-08-19T07:48:05.535Z,78.11
2022-08-19T07:50:36.161Z,78.17
2022-08-19T07:53:03.814Z,77.60
2022-08-19T07:55:41.471Z,79.81
2022-08-19T07:58:15.771Z,78.34
2022-08-19T08:00:47.516Z,81.54
2022-08-19T08:03:20.282Z,76.72
2022-08-19T08:06:08.649Z,79.46
2022-08-19T08:08:48.356Z,77.34
2022-08-19T08:11:20.695Z,72.28
2022-08-19T08:14:00.313Z,74.35
2022-08-19T08:16:33.106Z,72.41
2022-08-19T08:19:18.202Z,74.44
2022-08-19T08:21:57.379Z,71.41
2022-08-19T08:24:29.127Z,66.92
2022-08-19T08:26:59.823Z,66.28
2022-08-19T08:29:34.452Z,67.90
2022-08-19T08:32:14.842Z,68.51
2022-08-19T08:34:44.470Z,66.59
2022-08-19T08:37:16.825Z,66.34
2022-08-19T08:39:45.515Z,66.40
2022-08-19T08:42:33.682Z,67.06
2022-08-19T08:45:16.879Z,65.51
2022-08-19T08:47:51.153Z,64.15
2022-08-19T08:50:36.709Z,64.53
2022-08-19T08:53:11.725Z,66.01
2022-08-19T08:55:42.588Z,64.62
2022-08-19T08:58:17.095Z,65.76
2022-08-19T09:00:48.550Z,66.24
2022-08-19T09:03:31.518Z,65.15
2022-08-19T09:06:13.091Z,65.27
2022-08-19T09:09:16.117Z,66.83
2022-08-19T09:12:17.201Z,64.92
2022-08-19T09:15:01.205Z,62.08
2022-08-19T09:17:36.241Z,63.29
2022-08-19T09:20:10.576Z,62.61
2022-08-19T09:22:45.422Z,61.76
2022-08-19T09:25:17.940Z,61.23
2022-08-19T09:28:02.781Z,61.24
2022-08-19T09:30:41.725Z,61.09
2022-08-19T09:33:10.272Z,59.82
2022-08-19T09:35:49.971Z,60.38
2022-08-19T09:38:22.795Z,62.28
2022-08-19T09:40:52.333Z,60.01
2022-08-19T09:43:32.606Z,59.53
2022-08-19T09:46:03.103Z,60.51
2022-08-19T09:48:33.320Z,60.64
2022-08-19T09:51:07.808Z,60.99
2022-08-19T09:53:41.440Z,60.79
2022-08-19T09:56:09.925Z,59.25
2022-08-19T09:58:39.944Z,57.10
2022-08-19T10:01:09.234Z,58.66
2022-08-19T10:03:38.974Z,57.62
2022-08-19T10:06:15.228Z,59.58
2022-08-19T10:08:49.973Z,56.38
2022-08-19T10:11:28.139Z,55.67
2022-08-19T10:14:08.503Z,55.52
2022-08-19T10:16:39.742Z,53.32
2022-08-19T10:19:16.546Z,52.98
2022-08-19T10:21:55.637Z,50.48
2022-08-19T10:24:29.901Z,53.04
2022-08-19T10:26:59.886Z,51.79
2022-08-19T10:29:32.865Z,53.10
2022-08-19T10:32:04.202Z,52.71
2022-08-19T10:34:32.377Z,54.21
2022-08-19T10:37:10.888Z,52.17
2022-08-19T10:39:44.016Z,51.83
2022-08-19T10:42:18.202Z,52.36
2022-08-19T10:44:47.824Z,50.28
2022-08-19T10:47:24.994Z,47.01
2022-08-19T10:50:14.966Z,49.22
2022-08-19T10:52:49.939Z,49.72
2022-08-19T10:55:40.801Z,49.64
2022-08-19T10:58:15.092Z,50.51
2022-08-19T11:00:44.469Z,50.69
2022-08-19T11:03:13.571Z,51.68
2022-08-19T11:05:43.267Z,53.60
2022-08-19T11:08:23.426Z,52.60
2022-08-19T11:10:56.462Z,50.13
2022-08-19T11:13:24.650Z,50.89
2022-08-19T11:16:11.235Z,51.75
2022-08-19T11:18:50.760Z,51.72
2022-08-19T11:21:28.874Z,52.35
2022-08-19T11:24:01.116Z,52.69
2022-08-19T11:26:30.753Z,52.00
2022-08-19T11:29:01.954Z,52.10
2022-08-19T11:31:37.919Z,52.12
2022-08-19T11:34:10.604Z,54.30
2022-08-19T11:36:42.885Z,52.27
2022-08-19T11:39:15.069Z,52.68
2022-08-19T11:41:43.528Z,52.30
2022-08-19T11:44:15.249Z,52.53
2022-08-19T11:46:48.038Z,54.34
2022-08-19T11:49:19.924Z,51.36
2022-08-19T11:51:51.132Z,50.12
2022-08-19T11:54:20.229Z,49.04
2022-08-19T11:56:50.201Z,47.97
2022-08-19T11:59:19.320Z,47.79
2022-08-19T12:01:47.534Z,50.21
2022-08-19T12:07:13.461Z,49.43
2022-08-19T12:09:44.044Z,49.15
2022-08-19T12:12:14.115Z,49.82
2022-08-19T12:14:42.272Z,48.23
2022-08-19T12:17:10.677Z,48.00
2022-08-19T12:19:40.805Z,46.94
2022-08-19T12:22:09.586Z,48.37
2022-08-19T12:24:38.592Z,46.46
2022-08-19T12:27:12.582Z,46.85
2022-08-19T12:29:42.677Z,44.64
2022-08-19T12:32:19.821Z,43.63
2022-08-19T12:34:48.518Z,42.25
2022-08-19T12:37:16.323Z,41.20
2022-08-19T12:39:44.986Z,40.33
2022-08-19T12:42:15.521Z,39.26
2022-08-19T12:44:44.626Z,39.20
2022-08-19T12:47:19.622Z,38.30
2022-08-19T12:49:54.467Z,36.88
2022-08-19T12:52:28.659Z,37.58
2022-08-19T12:54:58.861Z,37.06
2022-08-19T12:57:37.263Z,37.26
2022-08-19T13:00:16.834Z,36.06
2022-08-19T13:02:54.549Z,36.58
2022-08-19T13:05:27.190Z,37.06
2022-08-19T13:08:00.656Z,37.88
2022-08-19T13:10:39.769Z,38.62
2022-08-19T13:13:10.868Z,40.48
2022-08-19T13:15:43.954Z,43.29
2022-08-19T13:18:15.400Z,44.34
2022-08-19T13:20:52.488Z,45.41
2022-08-19T13:23:22.917Z,45.83
2022-08-19T13:26:04.885Z,48.11
2022-08-19T13:28:52.837Z,49.23
2022-08-19T13:31:43.794Z,51.66
2022-08-19T13:34:12.912Z,51.50
2022-08-19T13:36:41.857Z,53.08
2022-08-19T13:39:11.281Z,53.96
2022-08-19T13:41:48.891Z,54.42
2022-08-19T13:44:20.443Z,56.16
2022-08-19T13:46:54.330Z,56.97
2022-08-19T13:49:24.322Z,56.69
2022-08-19T13:51:52.426Z,57.05
2022-08-19T13:54:24.101Z,56.35
2022-08-19T13:56:52.262Z,57.84
2022-08-19T13:59:20.360Z,57.24
2022-08-19T14:01:52.707Z,47.33
2022-08-19T14:04:21.412Z,52.36
2022-08-19T14:06:50.293Z,52.94
2022-08-19T14:09:19.285Z,53.47
2022-08-19T14:11:48.544Z,54.87
2022-08-19T14:14:16.654Z,56.32
2022-08-19T14:16:46.609Z,56.98
2022-08-19T14:19:14.322Z,57.62
2022-08-19T14:21:43.175Z,58.22
2022-08-19T14:24:11.297Z,57.88
2022-08-19T14:26:40.122Z,59.46
2022-08-19T14:29:08.313Z,58.25
2022-08-19T14:31:37.463Z,58.92
2022-08-19T14:34:06.258Z,59.45
2022-08-19T14:36:39.352Z,61.82
2022-08-19T14:39:08.680Z,62.31
2022-08-19T14:41:37.544Z,66.76
2022-08-19T14:44:05.135Z,70.03
2022-08-19T14:46:35.395Z,70.23
2022-08-19T14:49:09.419Z,71.08
2022-08-19T14:51:38.926Z,72.82
2022-08-19T14:54:07.764Z,72.50
2022-08-19T14:56:37.988Z,72.58
2022-08-19T14:59:07.489Z,72.07
2022-08-19T15:01:36.363Z,71.44
2022-08-19T15:04:07.605Z,70.09
2022-08-19T15:06:40.109Z,68.45
2022-08-19T15:09:12.742Z,68.18
2022-08-19T15:11:41.386Z,71.58
2022-08-19T15:14:11.251Z,72.71
2022-08-19T15:16:45.283Z,72.77
2022-08-19T15:19:13.356Z,72.08
2022-08-19T15:21:43.122Z,70.91
2022-08-19T15:24:11.600Z,71.23
2022-08-19T15:26:41.065Z,69.05
2022-08-19T15:29:10.828Z,69.49
2022-08-19T15:31:39.337Z,68.52
2022-08-19T15:34:08.584Z,70.03
2022-08-19T15:36:39.412Z,69.41
2022-08-19T15:39:10.271Z,70.10
2022-08-19T15:41:38.835Z,70.90
2022-08-19T15:44:10.635Z,69.49
2022-08-19T15:46:40.648Z,70.01
2022-08-19T15:49:11.823Z,69.02
2022-08-19T15:51:43.582Z,69.20
2022-08-19T15:54:17.738Z,70.57
2022-08-19T15:57:04.825Z,72.59
2022-08-19T16:00:02.442Z,74.86
2022-08-19T16:02:53.679Z,75.01
2022-08-19T16:05:46.574Z,78.51
2022-08-19T16:08:15.906Z,76.57
2022-08-19T16:10:44.614Z,81.07
2022-08-19T16:13:12.454Z,76.67
2022-08-19T16:15:42.196Z,80.85
2022-08-19T16:18:11.704Z,81.42
2022-08-19T16:20:44.600Z,80.03
2022-08-19T16:23:16.778Z,81.72
2022-08-19T16:25:45.833Z,83.19
2022-08-19T16:28:15.840Z,86.94
2022-08-19T16:30:51.067Z,88.11
2022-08-19T16:33:22.799Z,88.83
2022-08-19T16:35:59.226Z,92.10
2022-08-19T16:38:30.880Z,94.95
2022-08-19T16:41:02.173Z,96.82
2022-08-19T16:43:32.882Z,99.96
2022-08-19T16:46:02.880Z,100.00
2022-08-19T16:48:34.430Z,100.00
2022-08-19T16:51:07.345Z,100.00
2022-08-19T16:53:37.151Z,100.00
2022-08-19T16:56:07.608Z,100.00
2022-08-19T16:58:38.860Z,100.00
2022-08-19T17:01:11.761Z,100.00
2022-08-19T17:03:41.035Z,100.00
2022-08-19T17:06:20.625Z,100.00
2022-08-19T17:08:55.748Z,100.00
2022-08-19T17:11:27.547Z,100.00
2022-08-19T17:13:59.371Z,100.00
2022-08-19T17:16:32.491Z,100.00
2022-08-19T17:19:07.374Z,100.00
2022-08-19T17:21:41.328Z,100.00
2022-08-19T17:24:11.759Z,100.00
2022-08-19T17:26:42.178Z,100.00
2022-08-19T17:29:11.997Z,100.00
2022-08-19T17:31:40.381Z,100.00
2022-08-19T17:34:10.765Z,100.00
2022-08-19T17:36:40.906Z,100.00
2022-08-19T17:39:09.482Z,100.00
2022-08-19T17:41:38.523Z,100.00
2022-08-19T17:44:08.047Z,100.00
2022-08-19T17:46:36.754Z,100.00
2022-08-19T17:49:07.039Z,100.00
2022-08-19T17:51:36.631Z,100.00
2022-08-19T17:54:06.756Z,100.00
2022-08-19T17:56:35.357Z,100.00
2022-08-19T17:59:08.479Z,100.00
2022-08-19T18:01:53.771Z,100.00
2022-08-19T18:04:25.248Z,100.00
2022-08-19T18:06:55.771Z,100.00
2022-08-19T18:09:41.983Z,100.00
2022-08-19T18:12:14.249Z,100.00
2022-08-19T18:14:43.739Z,100.00
2022-08-19T18:17:23.435Z,100.00
2022-08-19T18:19:54.645Z,100.00
2022-08-19T18:22:27.748Z,100.00
2022-08-19T18:24:58.515Z,100.00
2022-08-19T18:27:28.359Z,100.00
2022-08-19T18:29:59.570Z,100.00
2022-08-19T18:32:38.841Z,100.00
2022-08-19T18:35:11.875Z,100.00
2022-08-19T18:37:42.198Z,100.00
2022-08-19T18:40:32.934Z,100.00
2022-08-19T18:43:20.278Z,100.00
2022-08-19T18:46:07.424Z,100.00
2022-08-19T18:48:57.819Z,100.00
2022-08-19T18:51:30.351Z,100.00
2022-08-19T18:54:01.601Z,100.00
2022-08-19T18:56:37.758Z,100.00
2022-08-19T18:59:06.730Z,100.00
2022-08-19T19:01:40.246Z,100.00
2022-08-19T19:04:10.886Z,100.00
2022-08-19T19:06:42.808Z,100.00
2022-08-19T19:09:15.608Z,100.00
2022-08-19T19:11:50.589Z,100.00
2022-08-19T19:14:46.062Z,100.00
2022-08-19T19:17:15.443Z,100.00
2022-08-19T19:19:44.375Z,100.00
2022-08-19T19:22:17.756Z,100.00
2022-08-19T19:24:46.917Z,100.00
2022-08-19T19:27:18.684Z,100.00
2022-08-19T19:29:51.688Z,100.00
2022-08-19T19:32:31.903Z,100.00
2022-08-19T19:35:01.276Z,100.00
2022-08-19T19:37:30.366Z,100.00
2022-08-19T19:39:58.477Z,100.00
2022-08-19T19:42:27.198Z,100.00
2022-08-19T19:44:56.132Z,100.00
2022-08-19T19:47:25.883Z,100.00
2022-08-19T19:50:14.767Z,100.00
2022-08-19T19:52:47.384Z,100.00
2022-08-19T19:55:18.692Z,100.00
2022-08-19T19:57:49.084Z,100.00
2022-08-19T20:00:19.195Z,100.00
2022-08-19T20:02:50.907Z,100.00
2022-08-19T20:05:23.074Z,100.00
2022-08-19T20:08:12.941Z,100.00
2022-08-19T20:10:43.738Z,100.00
2022-08-19T20:13:15.660Z,100.00
2022-08-19T20:15:44.091Z,100.00
2022-08-19T20:18:16.248Z,100.00
2022-08-19T20:20:50.346Z,100.00
2022-08-19T20:23:22.951Z,100.00
2022-08-19T20:25:54.861Z,100.00
2022-08-19T20:28:23.430Z,100.00
2022-08-19T20:30:54.852Z,100.00
2022-08-19T20:33:23.418Z,100.00
2022-08-19T20:35:52.898Z,100.00
2022-08-19T20:38:21.869Z,100.00
2022-08-19T20:40:51.388Z,100.00
2022-08-19T20:43:20.851Z,100.00
2022-08-19T20:45:49.272Z,100.00
2022-08-19T20:48:18.975Z,100.00
2022-08-19T20:50:48.465Z,100.00
2022-08-19T20:53:19.794Z,100.00
2022-08-19T20:55:51.643Z,100.00
2022-08-19T20:58:22.438Z,100.00
2022-08-19T21:00:52.971Z,100.00
2022-08-19T21:03:24.777Z,100.00
2022-08-19T21:05:53.903Z,100.00
2022-08-19T21:08:24.684Z,100.00
2022-08-19T21:10:56.257Z,100.00
2022-08-19T21:13:26.208Z,100.00
2022-08-19T21:15:54.779Z,100.00
2022-08-19T21:18:25.760Z,100.00
2022-08-19T21:20:55.689Z,100.00
2022-08-19T21:23:25.840Z,100.00
2022-08-19T21:25:57.026Z,100.00
2022-08-19T21:28:29.864Z,100.00
2022-08-19T21:31:07.159Z,100.00
2022-08-19T21:33:37.059Z,100.00
2022-08-19T21:50:51.135Z,100.00
2022-08-19T21:53:22.831Z,100.00
2022-08-19T21:55:54.074Z,100.00
2022-08-19T21:58:29.918Z,100.00
2022-08-19T22:01:01.845Z,100.00
2022-08-19T22:03:31.145Z,100.00
2022-08-19T22:05:59.526Z,100.00
2022-08-19T22:08:28.442Z,100.00
2022-08-19T22:10:58.958Z,100.00
2022-08-19T22:13:27.560Z,100.00
2022-08-19T22:15:56.277Z,100.00
2022-08-19T22:18:24.838Z,100.00
2022-08-19T22:20:53.493Z,100.00
2022-08-19T22:23:21.560Z,100.00
2022-08-19T22:25:50.722Z,100.00
2022-08-19T22:28:27.829Z,100.00
2022-08-19T22:30:57.175Z,100.00
2022-08-19T22:33:27.833Z,100.00
2022-08-19T22:35:56.938Z,100.00
2022-08-19T22:38:26.183Z,100.00
2022-08-19T22:40:56.612Z,100.00
2022-08-19T22:43:30.165Z,100.00
2022-08-19T22:46:00.553Z,100.00
2022-08-19T22:48:30.714Z,100.00
2022-08-19T22:51:19.085Z,100.00
2022-08-19T22:53:48.173Z,100.00
2022-08-19T22:56:19.420Z,100.00
2022-08-19T22:58:50.028Z,100.00
2022-08-19T23:01:27.472Z,100.00
2022-08-19T23:03:59.945Z,100.00
2022-08-19T23:06:33.763Z,100.00
2022-08-19T23:09:08.145Z,100.00
2022-08-19T23:11:42.208Z,100.00
2022-08-19T23:14:12.681Z,100.00
2022-08-19T23:16:42.084Z,100.00
2022-08-19T23:19:11.578Z,100.00
2022-08-19T23:21:42.180Z,100.00
2022-08-19T23:24:11.522Z,100.00
2022-08-19T23:27:00.193Z,100.00
2022-08-19T23:29:48.929Z,100.00
2022-08-19T23:32:21.698Z,100.00
2022-08-19T23:34:50.781Z,100.00
2022-08-19T23:37:18.695Z,100.00
2022-08-19T23:39:47.436Z,100.00
2022-08-19T23:42:15.492Z,100.00
2022-08-19T23:44:52.377Z,100.00
2022-08-19T23:47:23.809Z,100.00
2022-08-19T23:49:52.758Z,100.00
2022-08-19T23:52:20.566Z,100.00
2022-08-19T23:54:49.633Z,100.00
2022-08-19T23:57:19.913Z,100.00
2022-08-19T23:59:48.511Z,100.00
